sensor_id;sensor_type;location;lat;lon;timestamp;pressure;altitude;pressure_sealevel;temperature;humidity
55801;BME280;41730;51.960;20.158;2022-08-19T00:02:15;99778.27;;;24.81;60.43
55801;BME280;41730;51.960;20.158;2022-08-19T00:04:47;99776.52;;;24.89;59.99
55801;BME280;41730;51.960;20.158;2022-08-19T00:07:22;99778.87;;;24.95;59.74
55801;BME280;41730;51.960;20.158;2022-08-19T00:09:54;99777.99;;;24.92;59.98
55801;BME280;41730;51.960;20.158;2022-08-19T00:12:26;99779.19;;;24.88;60.05
55801;BME280;41730;51.960;20.158;2022-08-19T00:14:58;99785.94;;;24.76;60.51
55801;BME280;41730;51.960;20.158;2022-08-19T00:17:30;99788.69;;;24.76;60.68
55801;BME280;41730;51.960;20.158;2022-08-19T00:20:02;99790.29;;;24.74;60.70
55801;BME280;41730;51.960;20.158;2022-08-19T00:22:34;99791.98;;;24.79;60.56
55801;BME280;41730;51.960;20.158;2022-08-19T00:25:07;99794.83;;;24.77;60.48
55801;BME280;41730;51.960;20.158;2022-08-19T00:27:39;99789.60;;;24.83;60.14
55801;BME280;41730;51.960;20.158;2022-08-19T00:30:14;99781.98;;;24.76;60.35
55801;BME280;41730;51.960;20.158;2022-08-19T00:32:45;99779.33;;;24.61;60.95
55801;BME280;41730;51.960;20.158;2022-08-19T00:35:17;99771.08;;;24.64;60.80
55801;BME280;41730;51.960;20.158;2022-08-19T00:37:51;99765.14;;;24.52;61.26
55801;BME280;41730;51.960;20.158;2022-08-19T00:40:23;99766.23;;;24.50;61.27
55801;BME280;41730;51.960;20.158;2022-08-19T00:42:55;99771.48;;;24.42;61.16
55801;BME280;41730;51.960;20.158;2022-08-19T00:45:28;99770.48;;;24.31;61.51
55801;BME280;41730;51.960;20.158;2022-08-19T00:48:05;99764.98;;;24.24;61.91
55801;BME280;41730;51.960;20.158;2022-08-19T00:50:44;99762.38;;;24.31;61.85
55801;BME280;41730;51.960;20.158;2022-08-19T00:53:23;99758.11;;;24.38;61.91
55801;BME280;41730;51.960;20.158;2022-08-19T00:55:58;99761.62;;;24.31;62.05
55801;BME280;41730;51.960;20.158;2022-08-19T00:58:34;99760.34;;;24.23;61.89
55801;BME280;41730;51.960;20.158;2022-08-19T01:01:06;99757.80;;;24.07;62.44
55801;BME280;41730;51.960;20.158;2022-08-19T01:03:40;99757.59;;;23.95;62.87
55801;BME280;41730;51.960;20.158;2022-08-19T01:06:27;99757.15;;;23.82;63.10
55801;BME280;41730;51.960;20.158;2022-08-19T01:09:04;99755.44;;;23.72;63.42
55801;BME280;41730;51.960;20.158;2022-08-19T01:11:37;99753.86;;;23.71;63.61
55801;BME280;41730;51.960;20.158;2022-08-19T01:14:11;99758.36;;;23.76;63.17
55801;BME280;41730;51.960;20.158;2022-08-19T01:16:45;99761.88;;;23.55;63.64
55801;BME280;41730;51.960;20.158;2022-08-19T01:19:24;99759.09;;;23.52;63.72
55801;BME280;41730;51.960;20.158;2022-08-19T01:22:02;99762.59;;;23.50;63.76
55801;BME280;41730;51.960;20.158;2022-08-19T01:24:43;99763.22;;;23.57;63.78
55801;BME280;41730;51.960;20.158;2022-08-19T01:27:18;99764.55;;;23.51;64.04
55801;BME280;41730;51.960;20.158;2022-08-19T01:29:51;99763.30;;;23.56;63.88
55801;BME280;41730;51.960;20.158;2022-08-19T01:32:22;99757.26;;;23.50;64.12
55801;BME280;41730;51.960;20.158;2022-08-19T01:35:03;99752.90;;;23.44;64.28
55801;BME280;41730;51.960;20.158;2022-08-19T01:37:45;99749.17;;;23.40;64.48
55801;BME280;41730;51.960;20.158;2022-08-19T01:40:19;99746.77;;;23.36;64.65
55801;BME280;41730;51.960;20.158;2022-08-19T01:42:52;99746.63;;;23.44;64.38
55801;BME280;41730;51.960;20.158;2022-08-19T01:45:26;99750.11;;;23.42;64.21
55801;BME280;41730;51.960;20.158;2022-08-19T01:47:59;99754.06;;;23.36;64.40
55801;BME280;41730;51.960;20.158;2022-08-19T01:50:32;99749.46;;;23.19;64.94
55801;BME280;41730;51.960;20.158;2022-08-19T01:53:07;99746.42;;;23.20;65.13
55801;BME280;41730;51.960;20.158;2022-08-19T01:55:43;99745.58;;;23.24;64.94
55801;BME280;41730;51.960;20.158;2022-08-19T01:58:18;99749.45;;;23.23;65.07
55801;BME280;41730;51.960;20.158;2022-08-19T02:00:52;99754.64;;;23.14;65.13
55801;BME280;41730;51.960;20.158;2022-08-19T02:03:25;99753.70;;;23.07;65.17
55801;BME280;41730;51.960;20.158;2022-08-19T02:05:59;99760.23;;;23.02;65.59
55801;BME280;41730;51.960;20.158;2022-08-19T02:08:32;99753.52;;;23.05;65.62
55801;BME280;41730;51.960;20.158;2022-08-19T02:11:05;99751.60;;;23.12;65.39
55801;BME280;41730;51.960;20.158;2022-08-19T02:13:37;99744.33;;;23.04;65.57
55801;BME280;41730;51.960;20.158;2022-08-19T02:16:10;99739.25;;;22.97;65.82
55801;BME280;41730;51.960;20.158;2022-08-19T02:18:41;99732.14;;;23.04;65.49
55801;BME280;41730;51.960;20.158;2022-08-19T02:21:13;99730.52;;;23.02;65.45
55801;BME280;41730;51.960;20.158;2022-08-19T02:23:46;99731.98;;;22.90;65.90
55801;BME280;41730;51.960;20.158;2022-08-19T02:26:18;99726.09;;;22.87;66.06
55801;BME280;41730;51.960;20.158;2022-08-19T02:28:50;99726.00;;;22.97;65.78
55801;BME280;41730;51.960;20.158;2022-08-19T02:31:24;99728.48;;;22.99;65.76
55801;BME280;41730;51.960;20.158;2022-08-19T02:33:58;99729.36;;;23.03;65.73
55801;BME280;41730;51.960;20.158;2022-08-19T02:36:29;99728.89;;;22.97;65.80
55801;BME280;41730;51.960;20.158;2022-08-19T02:39:02;99725.89;;;22.94;65.87
55801;BME280;41730;51.960;20.158;2022-08-19T02:41:34;99724.55;;;23.05;65.48
55801;BME280;41730;51.960;20.158;2022-08-19T02:44:07;99726.30;;;23.03;65.58
55801;BME280;41730;51.960;20.158;2022-08-19T02:46:59;99726.34;;;23.07;65.42
55801;BME280;41730;51.960;20.158;2022-08-19T02:49:32;99730.78;;;23.06;65.47
55801;BME280;41730;51.960;20.158;2022-08-19T02:52:04;99739.44;;;23.01;65.71
55801;BME280;41730;51.960;20.158;2022-08-19T02:54:36;99739.11;;;23.01;65.74
55801;BME280;41730;51.960;20.158;2022-08-19T02:57:08;99736.83;;;22.94;65.97
55801;BME280;41730;51.960;20.158;2022-08-19T02:59:40;99732.05;;;22.93;66.06
55801;BME280;41730;51.960;20.158;2022-08-19T03:02:11;99731.02;;;22.85;66.30
55801;BME280;41730;51.960;20.158;2022-08-19T03:04:43;99723.23;;;22.83;66.32
55801;BME280;41730;51.960;20.158;2022-08-19T03:07:16;99721.27;;;22.85;66.22
55801;BME280;41730;51.960;20.158;2022-08-19T03:09:48;99722.54;;;22.76;66.18
55801;BME280;41730;51.960;20.158;2022-08-19T03:12:20;99722.98;;;22.70;66.61
55801;BME280;41730;51.960;20.158;2022-08-19T03:14:52;99722.37;;;22.77;66.50
55801;BME280;41730;51.960;20.158;2022-08-19T03:17:23;99722.08;;;22.84;66.38
55801;BME280;41730;51.960;20.158;2022-08-19T03:19:55;99724.17;;;22.95;66.00
55801;BME280;41730;51.960;20.158;2022-08-19T03:22:26;99728.92;;;22.92;66.02
55801;BME280;41730;51.960;20.158;2022-08-19T03:25:00;99728.11;;;22.95;65.86
55801;BME280;41730;51.960;20.158;2022-08-19T03:27:32;99730.86;;;22.83;66.25
55801;BME280;41730;51.960;20.158;2022-08-19T03:30:13;99733.57;;;22.79;66.39
55801;BME280;41730;51.960;20.158;2022-08-19T03:32:54;99738.35;;;22.75;66.60
55801;BME280;41730;51.960;20.158;2022-08-19T03:35:31;99742.56;;;22.80;66.48
55801;BME280;41730;51.960;20.158;2022-08-19T03:38:12;99740.30;;;22.68;66.64
55801;BME280;41730;51.960;20.158;2022-08-19T03:40:45;99736.45;;;22.59;67.06
55801;BME280;41730;51.960;20.158;2022-08-19T03:43:16;99728.15;;;22.72;66.69
55801;BME280;41730;51.960;20.158;2022-08-19T03:45:49;99726.98;;;22.66;66.76
55801;BME280;41730;51.960;20.158;2022-08-19T03:48:21;99726.19;;;22.57;67.07
55801;BME280;41730;51.960;20.158;2022-08-19T03:50:52;99723.20;;;22.54;67.37
55801;BME280;41730;51.960;20.158;2022-08-19T03:53:24;99728.41;;;22.74;66.88
55801;BME280;41730;51.960;20.158;2022-08-19T03:55:56;99727.67;;;22.91;66.48
55801;BME280;41730;51.960;20.158;2022-08-19T03:58:30;99723.52;;;23.10;65.93
55801;BME280;41730;51.960;20.158;2022-08-19T04:01:01;99724.33;;;23.24;65.51
55801;BME280;41730;51.960;20.158;2022-08-19T04:03:33;99723.52;;;23.31;65.36
55801;BME280;41730;51.960;20.158;2022-08-19T04:06:13;99725.01;;;23.38;65.39
55801;BME280;41730;51.960;20.158;2022-08-19T04:08:47;99725.45;;;23.72;64.73
55801;BME280;41730;51.960;20.158;2022-08-19T04:11:24;99731.94;;;23.96;64.34
55801;BME280;41730;51.960;20.158;2022-08-19T04:14:15;99738.88;;;24.17;64.16
55801;BME280;41730;51.960;20.158;2022-08-19T04:16:48;99747.35;;;24.30;63.79
55801;BME280;41730;51.960;20.158;2022-08-19T04:19:20;99750.13;;;24.35;63.42
55801;BME280;41730;51.960;20.158;2022-08-19T04:21:54;99749.06;;;24.19;63.58
55801;BME280;41730;51.960;20.158;2022-08-19T04:24:26;99746.50;;;24.04;63.80
55801;BME280;41730;51.960;20.158;2022-08-19T04:26:58;99741.80;;;23.97;63.91
55801;BME280;41730;51.960;20.158;2022-08-19T04:29:31;99737.30;;;23.86;64.28
55801;BME280;41730;51.960;20.158;2022-08-19T04:32:03;99731.91;;;23.80;64.70
55801;BME280;41730;51.960;20.158;2022-08-19T04:34:38;99729.27;;;23.81;64.82
55801;BME280;41730;51.960;20.158;2022-08-19T04:37:29;99734.88;;;23.80;64.75
55801;BME280;41730;51.960;20.158;2022-08-19T04:40:07;99736.05;;;23.95;64.14
55801;BME280;41730;51.960;20.158;2022-08-19T04:42:56;99750.61;;;23.95;64.60
55801;BME280;41730;51.960;20.158;2022-08-19T04:45:28;99755.52;;;24.22;64.73
55801;BME280;41730;51.960;20.158;2022-08-19T04:48:13;99752.80;;;24.58;64.10
55801;BME280;41730;51.960;20.158;2022-08-19T04:50:56;99749.72;;;24.73;64.08
55801;BME280;41730;51.960;20.158;2022-08-19T04:53:30;99750.71;;;25.09;63.26
55801;BME280;41730;51.960;20.158;2022-08-19T04:56:10;99748.17;;;25.49;62.30
55801;BME280;41730;51.960;20.158;2022-08-19T04:58:43;99748.22;;;25.66;62.00
55801;BME280;41730;51.960;20.158;2022-08-19T05:01:20;99747.77;;;25.78;61.88
55801;BME280;41730;51.960;20.158;2022-08-19T05:03:52;99745.26;;;26.17;61.04
55801;BME280;41730;51.960;20.158;2022-08-19T05:06:24;99747.79;;;26.54;60.11
55801;BME280;41730;51.960;20.158;2022-08-19T05:08:56;99739.00;;;26.66;59.60
55801;BME280;41730;51.960;20.158;2022-08-19T05:11:30;99734.15;;;26.73;59.72
55801;BME280;41730;51.960;20.158;2022-08-19T05:14:02;99732.70;;;26.86;59.52
55801;BME280;41730;51.960;20.158;2022-08-19T05:16:34;99733.15;;;27.02;58.96
55801;BME280;41730;51.960;20.158;2022-08-19T05:19:06;99728.33;;;27.11;58.33
55801;BME280;41730;51.960;20.158;2022-08-19T05:21:55;99726.52;;;27.02;58.20
55801;BME280;41730;51.960;20.158;2022-08-19T05:24:44;99725.27;;;27.06;58.10
55801;BME280;41730;51.960;20.158;2022-08-19T05:27:38;99727.48;;;27.22;57.79
55801;BME280;41730;51.960;20.158;2022-08-19T05:30:12;99731.25;;;27.41;57.42
55801;BME280;41730;51.960;20.158;2022-08-19T05:32:44;99732.17;;;27.53;57.23
55801;BME280;41730;51.960;20.158;2022-08-19T05:35:15;99733.84;;;27.65;56.81
55801;BME280;41730;51.960;20.158;2022-08-19T05:37:48;99738.66;;;27.72;56.95
55801;BME280;41730;51.960;20.158;2022-08-19T05:40:27;99743.03;;;27.95;56.68
55801;BME280;41730;51.960;20.158;2022-08-19T05:42:59;99739.42;;;28.11;56.63
55801;BME280;41730;51.960;20.158;2022-08-19T05:45:30;99737.92;;;28.29;56.05
55801;BME280;41730;51.960;20.158;2022-08-19T05:48:02;99740.77;;;28.71;55.06
55801;BME280;41730;51.960;20.158;2022-08-19T05:50:36;99739.51;;;28.81;54.91
55801;BME280;41730;51.960;20.158;2022-08-19T05:53:08;99734.80;;;28.88;54.87
55801;BME280;41730;51.960;20.158;2022-08-19T05:55:40;99744.89;;;28.99;54.18
55801;BME280;41730;51.960;20.158;2022-08-19T05:58:12;99751.64;;;29.15;53.65
55801;BME280;41730;51.960;20.158;2022-08-19T06:00:44;99761.28;;;29.24;53.57
55801;BME280;41730;51.960;20.158;2022-08-19T06:03:15;99762.02;;;29.38;53.43
55801;BME280;41730;51.960;20.158;2022-08-19T06:05:47;99750.84;;;29.56;52.82
55801;BME280;41730;51.960;20.158;2022-08-19T06:08:21;99742.99;;;29.66;52.67
55801;BME280;41730;51.960;20.158;2022-08-19T06:11:17;99749.15;;;29.86;52.30
55801;BME280;41730;51.960;20.158;2022-08-19T06:13:50;99751.88;;;30.26;51.23
55801;BME280;41730;51.960;20.158;2022-08-19T06:16:29;99751.48;;;30.38;50.97
55801;BME280;41730;51.960;20.158;2022-08-19T06:19:04;99746.69;;;30.27;50.77
55801;BME280;41730;51.960;20.158;2022-08-19T06:21:39;99736.60;;;30.32;50.68
55801;BME280;41730;51.960;20.158;2022-08-19T06:24:14;99733.70;;;30.44;49.83
55801;BME280;41730;51.960;20.158;2022-08-19T06:26:48;99735.22;;;30.49;49.85
55801;BME280;41730;51.960;20.158;2022-08-19T06:29:23;99740.86;;;30.50;49.82
55801;BME280;41730;51.960;20.158;2022-08-19T06:31:56;99745.96;;;30.57;49.61
55801;BME280;41730;51.960;20.158;2022-08-19T06:34:31;99747.12;;;30.70;49.59
55801;BME280;41730;51.960;20.158;2022-08-19T06:37:04;99745.42;;;30.64;49.60
55801;BME280;41730;51.960;20.158;2022-08-19T06:39:39;99741.52;;;30.68;49.34
55801;BME280;41730;51.960;20.158;2022-08-19T06:42:11;99739.94;;;30.75;49.30
55801;BME280;41730;51.960;20.158;2022-08-19T06:44:47;99743.16;;;30.88;49.02
55801;BME280;41730;51.960;20.158;2022-08-19T06:47:23;99750.39;;;30.94;48.87
55801;BME280;41730;51.960;20.158;2022-08-19T06:49:59;99751.59;;;30.87;48.71
55801;BME280;41730;51.960;20.158;2022-08-19T06:52:35;99748.66;;;30.89;48.62
55801;BME280;41730;51.960;20.158;2022-08-19T06:55:10;99745.98;;;30.90;48.41
55801;BME280;41730;51.960;20.158;2022-08-19T06:57:41;99742.88;;;31.00;48.19
55801;BME280;41730;51.960;20.158;2022-08-19T07:00:16;99740.20;;;31.12;48.06
55801;BME280;41730;51.960;20.158;2022-08-19T07:02:48;99738.67;;;31.19;47.75
55801;BME280;41730;51.960;20.158;2022-08-19T07:05:29;99740.80;;;31.16;47.59
55801;BME280;41730;51.960;20.158;2022-08-19T07:08:02;99741.66;;;31.16;47.83
55801;BME280;41730;51.960;20.158;2022-08-19T07:10:35;99741.04;;;31.30;47.70
55801;BME280;41730;51.960;20.158;2022-08-19T07:13:11;99735.42;;;31.48;47.57
55801;BME280;41730;51.960;20.158;2022-08-19T07:15:43;99736.23;;;31.64;47.42
55801;BME280;41730;51.960;20.158;2022-08-19T07:18:16;99739.55;;;31.63;47.35
55801;BME280;41730;51.960;20.158;2022-08-19T07:20:48;99739.06;;;31.62;47.40
55801;BME280;41730;51.960;20.158;2022-08-19T07:23:21;99735.50;;;31.71;47.00
55801;BME280;41730;51.960;20.158;2022-08-19T07:25:53;99735.27;;;31.70;46.75
55801;BME280;41730;51.960;20.158;2022-08-19T07:28:24;99737.91;;;31.78;46.96
55801;BME280;41730;51.960;20.158;2022-08-19T07:30:56;99736.77;;;32.04;46.19
55801;BME280;41730;51.960;20.158;2022-08-19T07:33:28;99735.80;;;32.00;45.95
55801;BME280;41730;51.960;20.158;2022-08-19T07:36:04;99735.83;;;31.82;46.14
55801;BME280;41730;51.960;20.158;2022-08-19T07:38:36;99739.73;;;31.98;46.08
55801;BME280;41730;51.960;20.158;2022-08-19T07:41:11;99736.77;;;32.02;46.07
55801;BME280;41730;51.960;20.158;2022-08-19T07:43:41;99732.15;;;32.02;46.12
55801;BME280;41730;51.960;20.158;2022-08-19T07:46:14;99725.41;;;32.11;46.13
55801;BME280;41730;51.960;20.158;2022-08-19T07:48:47;99720.16;;;32.25;45.48
55801;BME280;41730;51.960;20.158;2022-08-19T07:51:20;99727.77;;;32.52;45.12
55801;BME280;41730;51.960;20.158;2022-08-19T07:54:07;99729.27;;;32.50;44.96
55801;BME280;41730;51.960;20.158;2022-08-19T07:56:39;99737.23;;;32.50;44.92
55801;BME280;41730;51.960;20.158;2022-08-19T07:59:12;99746.34;;;32.39;44.35
55801;BME280;41730;51.960;20.158;2022-08-19T08:01:44;99745.23;;;32.18;44.79
55801;BME280;41730;51.960;20.158;2022-08-19T08:04:16;99742.67;;;32.26;44.92
55801;BME280;41730;51.960;20.158;2022-08-19T08:07:06;99742.47;;;32.34;44.42
55801;BME280;41730;51.960;20.158;2022-08-19T08:10:02;99741.19;;;32.30;44.05
55801;BME280;41730;51.960;20.158;2022-08-19T08:12:49;99742.19;;;32.44;43.92
55801;BME280;41730;51.960;20.158;2022-08-19T08:15:41;99742.25;;;32.59;43.56
55801;BME280;41730;51.960;20.158;2022-08-19T08:18:14;99741.92;;;32.53;43.79
55801;BME280;41730;51.960;20.158;2022-08-19T08:20:46;99742.94;;;32.56;43.57
55801;BME280;41730;51.960;20.158;2022-08-19T08:23:18;99750.98;;;32.56;43.22
55801;BME280;41730;51.960;20.158;2022-08-19T08:25:58;99753.59;;;32.50;43.02
55801;BME280;41730;51.960;20.158;2022-08-19T08:28:32;99764.24;;;32.50;42.86
55801;BME280;41730;51.960;20.158;2022-08-19T08:31:04;99773.70;;;32.41;43.15
55801;BME280;41730;51.960;20.158;2022-08-19T08:33:38;99775.91;;;32.37;43.21
55801;BME280;41730;51.960;20.158;2022-08-19T08:36:12;99773.87;;;32.24;43.05
55801;BME280;41730;51.960;20.158;2022-08-19T08:38:45;99773.83;;;32.23;43.09
55801;BME280;41730;51.960;20.158;2022-08-19T08:41:26;99773.73;;;32.39;42.75
55801;BME280;41730;51.960;20.158;2022-08-19T08:44:00;99777.60;;;32.45;42.32
55801;BME280;41730;51.960;20.158;2022-08-19T08:46:38;99774.06;;;32.36;42.76
55801;BME280;41730;51.960;20.158;2022-08-19T08:49:23;99776.52;;;32.33;43.02
55801;BME280;41730;51.960;20.158;2022-08-19T08:52:03;99774.52;;;32.35;43.13
55801;BME280;41730;51.960;20.158;2022-08-19T08:54:41;99772.08;;;32.33;42.86
55801;BME280;41730;51.960;20.158;2022-08-19T08:57:27;99773.19;;;32.45;43.13
55801;BME280;41730;51.960;20.158;2022-08-19T09:00:13;99770.55;;;32.52;43.16
55801;BME280;41730;51.960;20.158;2022-08-19T09:02:46;99774.30;;;32.44;43.47
55801;BME280;41730;51.960;20.158;2022-08-19T09:05:21;99772.45;;;32.60;43.62
55801;BME280;41730;51.960;20.158;2022-08-19T09:08:03;99775.16;;;32.69;43.42
55801;BME280;41730;51.960;20.158;2022-08-19T09:10:38;99777.18;;;32.69;43.41
55801;BME280;41730;51.960;20.158;2022-08-19T09:13:20;99772.77;;;32.75;42.98
55801;BME280;41730;51.960;20.158;2022-08-19T09:16:08;99772.94;;;32.54;43.29
55801;BME280;41730;51.960;20.158;2022-08-19T09:18:49;99775.17;;;32.60;43.09
55801;BME280;41730;51.960;20.158;2022-08-19T09:21:26;99778.27;;;32.83;43.20
55801;BME280;41730;51.960;20.158;2022-08-19T09:24:03;99773.93;;;32.79;42.57
55801;BME280;41730;51.960;20.158;2022-08-19T09:26:36;99775.31;;;32.71;42.83
55801;BME280;41730;51.960;20.158;2022-08-19T09:29:21;99776.20;;;32.82;41.97
55801;BME280;41730;51.960;20.158;2022-08-19T09:31:52;99774.41;;;32.82;41.73
55801;BME280;41730;51.960;20.158;2022-08-19T09:34:25;99774.98;;;32.90;41.91
55801;BME280;41730;51.960;20.158;2022-08-19T09:37:07;99768.88;;;32.91;41.92
55801;BME280;41730;51.960;20.158;2022-08-19T09:39:39;99769.28;;;32.97;41.31
55801;BME280;41730;51.960;20.158;2022-08-19T09:42:13;99765.77;;;32.99;41.94
55801;BME280;41730;51.960;20.158;2022-08-19T09:44:58;99770.34;;;33.18;42.07
55801;BME280;41730;51.960;20.158;2022-08-19T09:47:33;99774.98;;;33.18;41.09
55801;BME280;41730;51.960;20.158;2022-08-19T09:50:11;99771.76;;;33.08;40.89
55801;BME280;41730;51.960;20.158;2022-08-19T09:52:45;99765.02;;;32.91;40.64
55801;BME280;41730;51.960;20.158;2022-08-19T09:55:26;99764.17;;;33.03;40.40
55801;BME280;41730;51.960;20.158;2022-08-19T09:58:02;99765.93;;;32.98;40.05
55801;BME280;41730;51.960;20.158;2022-08-19T10:00:34;99759.42;;;33.09;40.53
55801;BME280;41730;51.960;20.158;2022-08-19T10:03:08;99757.39;;;33.09;39.92
55801;BME280;41730;51.960;20.158;2022-08-19T10:05:41;99752.85;;;32.92;40.57
55801;BME280;41730;51.960;20.158;2022-08-19T10:08:25;99750.61;;;32.87;40.93
55801;BME280;41730;51.960;20.158;2022-08-19T10:10:56;99743.98;;;32.86;40.92
55801;BME280;41730;51.960;20.158;2022-08-19T10:13:48;99749.04;;;33.12;40.71
55801;BME280;41730;51.960;20.158;2022-08-19T10:16:22;99748.77;;;33.29;40.55
55801;BME280;41730;51.960;20.158;2022-08-19T10:18:58;99744.77;;;33.30;40.23
55801;BME280;41730;51.960;20.158;2022-08-19T10:21:34;99739.83;;;33.33;40.62
55801;BME280;41730;51.960;20.158;2022-08-19T10:24:09;99740.98;;;33.38;40.78
55801;BME280;41730;51.960;20.158;2022-08-19T10:26:42;99740.92;;;33.38;40.53
55801;BME280;41730;51.960;20.158;2022-08-19T10:29:24;99740.74;;;33.30;40.62
55801;BME280;41730;51.960;20.158;2022-08-19T10:32:03;99739.87;;;33.30;40.66
55801;BME280;41730;51.960;20.158;2022-08-19T10:34:38;99737.70;;;33.43;40.03
55801;BME280;41730;51.960;20.158;2022-08-19T10:37:18;99737.13;;;33.32;40.23
55801;BME280;41730;51.960;20.158;2022-08-19T10:40:01;99736.55;;;33.35;39.93
55801;BME280;41730;51.960;20.158;2022-08-19T10:42:34;99743.52;;;33.35;39.69
55801;BME280;41730;51.960;20.158;2022-08-19T10:45:07;99740.59;;;33.43;40.01
55801;BME280;41730;51.960;20.158;2022-08-19T10:47:39;99737.14;;;33.45;40.18
55801;BME280;41730;51.960;20.158;2022-08-19T10:50:12;99736.30;;;33.54;40.24
55801;BME280;41730;51.960;20.158;2022-08-19T10:53:02;99729.73;;;33.54;39.85
55801;BME280;41730;51.960;20.158;2022-08-19T10:55:38;99730.93;;;33.49;39.59
55801;BME280;41730;51.960;20.158;2022-08-19T10:58:27;99728.44;;;33.38;39.82
55801;BME280;41730;51.960;20.158;2022-08-19T11:00:59;99725.06;;;33.43;40.15
55801;BME280;41730;51.960;20.158;2022-08-19T11:03:32;99724.18;;;33.53;39.65
55801;BME280;41730;51.960;20.158;2022-08-19T11:06:06;99729.48;;;33.53;39.75
55801;BME280;41730;51.960;20.158;2022-08-19T11:08:38;99727.09;;;33.51;39.71
55801;BME280;41730;51.960;20.158;2022-08-19T11:11:13;99727.95;;;33.52;39.52
55801;BME280;41730;51.960;20.158;2022-08-19T11:13:46;99725.86;;;33.53;39.05
55801;BME280;41730;51.960;20.158;2022-08-19T11:16:23;99724.95;;;33.53;39.01
55801;BME280;41730;51.960;20.158;2022-08-19T11:18:58;99718.76;;;33.37;39.69
55801;BME280;41730;51.960;20.158;2022-08-19T11:21:33;99712.49;;;33.40;39.87
55801;BME280;41730;51.960;20.158;2022-08-19T11:24:07;99711.36;;;33.30;40.25
55801;BME280;41730;51.960;20.158;2022-08-19T11:26:40;99712.80;;;33.24;40.62
55801;BME280;41730;51.960;20.158;2022-08-19T11:29:13;99712.13;;;33.30;40.50
55801;BME280;41730;51.960;20.158;2022-08-19T11:31:48;99712.36;;;33.44;40.21
55801;BME280;41730;51.960;20.158;2022-08-19T11:34:22;99714.98;;;33.38;40.37
55801;BME280;41730;51.960;20.158;2022-08-19T11:36:54;99712.40;;;33.30;40.76
55801;BME280;41730;51.960;20.158;2022-08-19T11:39:30;99708.97;;;33.40;40.48
55801;BME280;41730;51.960;20.158;2022-08-19T11:42:03;99697.86;;;33.48;40.56
55801;BME280;41730;51.960;20.158;2022-08-19T11:44:56;99697.13;;;33.49;40.49
55801;BME280;41730;51.960;20.158;2022-08-19T11:47:28;99693.45;;;33.28;40.86
55801;BME280;41730;51.960;20.158;2022-08-19T11:50:00;99692.07;;;33.26;41.18
55801;BME280;41730;51.960;20.158;2022-08-19T11:52:32;99695.64;;;33.46;40.71
55801;BME280;41730;51.960;20.158;2022-08-19T11:55:05;99691.02;;;33.45;40.66
55801;BME280;41730;51.960;20.158;2022-08-19T11:57:38;99687.37;;;33.37;41.11
55801;BME280;41730;51.960;20.158;2022-08-19T12:00:13;99683.70;;;33.46;41.02
55801;BME280;41730;51.960;20.158;2022-08-19T12:02:44;99672.23;;;33.53;40.72
55801;BME280;41730;51.960;20.158;2022-08-19T12:05:17;99674.29;;;33.49;40.56
55801;BME280;41730;51.960;20.158;2022-08-19T12:07:48;99674.31;;;33.38;40.62
55801;BME280;41730;51.960;20.158;2022-08-19T12:10:20;99668.85;;;33.35;40.60
55801;BME280;41730;51.960;20.158;2022-08-19T12:12:55;99666.46;;;33.47;40.78
55801;BME280;41730;51.960;20.158;2022-08-19T12:15:28;99668.19;;;33.48;40.93
55801;BME280;41730;51.960;20.158;2022-08-19T12:18:06;99669.02;;;33.47;40.95
55801;BME280;41730;51.960;20.158;2022-08-19T12:20:42;99670.58;;;33.45;40.40
55801;BME280;41730;51.960;20.158;2022-08-19T12:23:15;99672.09;;;33.56;40.01
55801;BME280;41730;51.960;20.158;2022-08-19T12:25:48;99670.38;;;33.66;40.23
55801;BME280;41730;51.960;20.158;2022-08-19T12:28:23;99666.71;;;33.71;40.48
55801;BME280;41730;51.960;20.158;2022-08-19T12:30:58;99663.30;;;33.74;40.38
55801;BME280;41730;51.960;20.158;2022-08-19T12:33:32;99662.77;;;33.76;40.03
55801;BME280;41730;51.960;20.158;2022-08-19T12:36:06;99658.09;;;33.64;40.06
55801;BME280;41730;51.960;20.158;2022-08-19T12:38:40;99653.92;;;33.66;40.05
55801;BME280;41730;51.960;20.158;2022-08-19T12:41:14;99654.17;;;33.59;39.86
55801;BME280;41730;51.960;20.158;2022-08-19T12:43:48;99653.60;;;33.52;40.51
55801;BME280;41730;51.960;20.158;2022-08-19T12:46:21;99656.30;;;33.72;40.51
55801;BME280;41730;51.960;20.158;2022-08-19T12:48:56;99655.66;;;33.78;39.53
55801;BME280;41730;51.960;20.158;2022-08-19T12:51:33;99652.65;;;33.86;39.23
55801;BME280;41730;51.960;20.158;2022-08-19T12:54:07;99653.55;;;33.81;39.16
55801;BME280;41730;51.960;20.158;2022-08-19T12:56:39;99655.02;;;33.61;39.33
55801;BME280;41730;51.960;20.158;2022-08-19T12:59:12;99657.29;;;33.48;39.78
55801;BME280;41730;51.960;20.158;2022-08-19T13:01:46;99651.50;;;33.54;39.23
55801;BME280;41730;51.960;20.158;2022-08-19T13:04:19;99647.58;;;33.74;39.13
55801;BME280;41730;51.960;20.158;2022-08-19T13:06:51;99649.70;;;33.94;39.38
55801;BME280;41730;51.960;20.158;2022-08-19T13:09:24;99647.08;;;34.04;38.75
55801;BME280;41730;51.960;20.158;2022-08-19T13:11:55;99645.86;;;34.07;38.58
55801;BME280;41730;51.960;20.158;2022-08-19T13:14:27;99642.83;;;34.10;38.45
55801;BME280;41730;51.960;20.158;2022-08-19T13:17:02;99638.35;;;34.04;38.32
55801;BME280;41730;51.960;20.158;2022-08-19T13:19:35;99637.64;;;34.05;38.82
55801;BME280;41730;51.960;20.158;2022-08-19T13:22:07;99647.72;;;34.21;38.49
55801;BME280;41730;51.960;20.158;2022-08-19T13:24:43;99648.98;;;34.14;38.58
55801;BME280;41730;51.960;20.158;2022-08-19T13:27:16;99648.36;;;33.99;38.85
55801;BME280;41730;51.960;20.158;2022-08-19T13:29:47;99650.61;;;33.98;38.93
55801;BME280;41730;51.960;20.158;2022-08-19T13:32:36;99646.13;;;34.06;38.39